Time;durP1;ratioP1;P1;durP2;ratioP2;P2;SDS_P1;SDS_P2;PMS_P1;PMS_P2;Temp;Humidity;BMP_temperature;BMP_pressure;BME280_temperature;BME280_humidity;BME280_pressure;Samples;Min_cycle;Max_cycle;Signal;HPM_P1;HPM_P2
2021/05/04 00:02:15;;;;;;;3.57;3.27;;;;;;;9.66;47.77;99675.56;5043445;28;20319;-75
2021/05/04 00:04:40;;;;;;;3.77;3.47;;;;;;;9.68;47.67;99668.56;5042278;28;20281;-76
2021/05/04 00:07:06;;;;;;;3.53;3.30;;;;;;;9.60;48.01;99659.25;5043729;28;20231;-77
2021/05/04 00:09:32;;;;;;;3.30;3.10;;;;;;;9.66;48.02;99656.47;5043014;28;20215;-76
2021/05/04 00:11:58;;;;;;;3.80;3.50;;;;;;;9.68;48.10;99649.47;5042710;28;20214;-77
2021/05/04 00:14:24;;;;;;;3.50;3.20;;;;;;;9.68;47.90;99634.69;5043106;28;20268;-76
2021/05/04 00:16:50;;;;;;;4.10;3.80;;;;;;;9.69;47.58;99622.50;5043128;28;20230;-76
2021/05/04 00:19:17;;;;;;;3.70;3.10;;;;;;;9.71;47.56;99615.50;5041975;28;20205;-77
2021/05/04 00:21:43;;;;;;;4.30;4.00;;;;;;;9.66;47.50;99607.81;5042657;28;20269;-74
2021/05/04 00:24:09;;;;;;;3.80;3.50;;;;;;;9.72;47.91;99598.97;5043099;28;20626;-76
2021/05/04 00:26:35;;;;;;;4.20;3.80;;;;;;;9.70;47.21;99596.41;5042758;28;20242;-75
2021/05/04 00:29:00;;;;;;;3.97;3.67;;;;;;;9.75;47.39;99598.88;5042924;28;20611;-76
2021/05/04 00:31:26;;;;;;;4.43;4.03;;;;;;;9.74;47.69;99585.00;5043070;28;20264;-77
2021/05/04 00:33:53;;;;;;;4.03;3.60;;;;;;;9.78;47.95;99574.50;5042172;28;20229;-76
2021/05/04 00:36:19;;;;;;;3.57;3.27;;;;;;;9.79;48.94;99576.19;5043542;28;20216;-77
2021/05/04 00:38:45;;;;;;;3.77;3.57;;;;;;;9.81;47.89;99566.56;5042965;28;20231;-76
2021/05/04 00:41:29;;;;;;;4.30;3.99;;;;;;;9.81;47.89;99551.81;4984753;28;10001012;-75
2021/05/04 00:43:55;;;;;;;4.03;3.73;;;;;;;9.77;48.15;99546.72;5039224;28;20442;-75
2021/05/04 00:46:21;;;;;;;4.00;3.70;;;;;;;9.72;46.96;99539.88;5039690;28;20301;-76
2021/05/04 00:48:47;;;;;;;4.17;3.77;;;;;;;9.74;47.71;99521.59;5042799;28;20215;-77
2021/05/04 00:51:13;;;;;;;4.47;3.70;;;;;;;9.73;48.12;99512.94;5042020;28;20202;-77
2021/05/04 00:53:41;;;;;;;3.90;3.60;;;;;;;9.73;47.90;99517.28;5041606;28;20212;-77
2021/05/04 00:56:08;;;;;;;3.70;3.40;;;;;;;9.76;47.75;99513.75;5042238;28;20621;-76
2021/05/04 00:58:34;;;;;;;5.43;3.83;;;;;;;9.78;47.95;99511.94;5041969;28;20269;-76
2021/05/04 01:01:01;;;;;;;5.07;3.53;;;;;;;9.79;47.59;99501.47;5042431;28;20207;-75
2021/05/04 01:03:27;;;;;;;4.10;3.70;;;;;;;9.77;48.03;99494.59;5042892;28;20225;-76
2021/05/04 01:05:53;;;;;;;4.00;3.60;;;;;;;9.77;47.88;99486.78;5041915;28;20232;-76
2021/05/04 01:08:19;;;;;;;3.83;3.53;;;;;;;9.73;46.87;99475.56;5045657;28;20501;-75
2021/05/04 01:10:46;;;;;;;3.57;3.27;;;;;;;9.78;47.23;99465.03;5046020;28;20225;-77
2021/05/04 01:13:12;;;;;;;3.53;3.33;;;;;;;9.81;48.11;99452.75;5045964;28;20238;-76
2021/05/04 01:15:41;;;;;;;3.87;3.47;;;;;;;9.79;47.81;99446.75;5046007;28;20970;-77
2021/05/04 01:18:07;;;;;;;3.53;3.33;;;;;;;9.80;48.42;99430.19;5045071;28;20596;-76
2021/05/04 01:20:36;;;;;;;3.73;3.43;;;;;;;9.76;47.44;99420.78;5046248;28;20209;-76
2021/05/04 01:23:02;;;;;;;4.10;3.70;;;;;;;9.82;47.84;99422.34;5045626;28;20271;-77
2021/05/04 01:25:28;;;;;;;3.80;3.50;;;;;;;9.85;48.13;99411.78;5046461;28;20256;-75
2021/05/04 01:27:54;;;;;;;4.63;3.60;;;;;;;9.81;47.14;99397.16;5046094;28;20254;-77
2021/05/04 01:30:21;;;;;;;3.63;3.33;;;;;;;9.79;47.32;99394.63;5045893;28;20647;-77
2021/05/04 01:32:47;;;;;;;3.53;3.33;;;;;;;9.82;47.66;99380.63;5044726;28;20202;-75
2021/05/04 01:35:13;;;;;;;4.03;3.73;;;;;;;9.79;48.03;99368.56;5045523;28;20271;-76
2021/05/04 01:37:39;;;;;;;4.20;3.90;;;;;;;9.83;47.27;99358.88;5045540;28;20269;-76
2021/05/04 01:40:07;;;;;;;4.23;3.93;;;;;;;9.82;48.11;99351.97;5044980;28;20237;-77
2021/05/04 01:42:33;;;;;;;4.10;3.80;;;;;;;9.83;48.32;99345.84;5045371;28;20266;-77
2021/05/04 01:44:59;;;;;;;4.13;3.23;;;;;;;9.80;47.44;99328.56;5044507;28;20710;-77
2021/05/04 01:47:25;;;;;;;3.90;3.60;;;;;;;9.82;47.10;99326.75;5045059;28;20322;-76
2021/05/04 01:49:51;;;;;;;3.97;3.57;;;;;;;9.87;48.02;99316.16;5044817;28;20210;-76
2021/05/04 01:52:17;;;;;;;4.47;4.07;;;;;;;9.89;47.58;99307.41;5044987;28;20204;-76
2021/05/04 01:54:43;;;;;;;3.93;3.63;;;;;;;9.94;47.04;99283.78;5045051;28;20222;-78
2021/05/04 01:57:10;;;;;;;4.00;3.70;;;;;;;9.91;46.48;99284.75;5044532;28;20331;-76
2021/05/04 01:59:36;;;;;;;4.17;3.87;;;;;;;9.94;47.20;99286.38;5044979;28;20257;-74
2021/05/04 02:02:02;;;;;;;3.90;3.47;;;;;;;9.97;47.16;99259.34;5045470;28;20674;-76
2021/05/04 02:04:31;;;;;;;3.80;3.50;;;;;;;9.98;46.62;99237.59;5044387;28;20294;-75
2021/05/04 02:06:57;;;;;;;3.67;3.40;;;;;;;10.01;47.25;99243.56;5044970;28;20239;-74
2021/05/04 02:09:23;;;;;;;4.20;3.80;;;;;;;10.03;46.74;99243.47;5044938;28;20207;-75
2021/05/04 02:11:49;;;;;;;3.80;3.50;;;;;;;10.03;47.31;99223.50;5044716;28;20208;-76
2021/05/04 02:14:16;;;;;;;3.97;3.67;;;;;;;10.02;47.48;99220.94;5044768;28;20269;-77
2021/05/04 02:16:42;;;;;;;3.87;3.43;;;;;;;10.06;47.78;99215.53;5044521;28;20249;-76
2021/05/04 02:19:08;;;;;;;3.70;3.40;;;;;;;10.04;46.34;99219.97;5043210;28;20213;-76
2021/05/04 02:21:34;;;;;;;3.83;3.50;;;;;;;10.03;46.36;99201.75;5044631;28;20225;-75
2021/05/04 02:24:00;;;;;;;4.33;3.90;;;;;;;10.09;47.22;99188.53;5044890;28;20696;-77
2021/05/04 02:26:26;;;;;;;5.40;4.13;;;;;;;10.07;47.11;99172.94;5044362;28;20835;-75
2021/05/04 02:28:52;;;;;;;3.70;3.40;;;;;;;10.06;46.85;99162.56;5044545;28;20212;-76
2021/05/04 02:31:19;;;;;;;4.27;3.77;;;;;;;10.09;46.97;99157.25;5044828;28;20207;-77
2021/05/04 02:33:45;;;;;;;4.17;3.73;;;;;;;10.12;46.95;99142.31;5043870;28;20238;-75
2021/05/04 02:36:11;;;;;;;4.07;3.50;;;;;;;10.12;46.89;99137.09;5044842;28;20213;-76
2021/05/04 02:38:37;;;;;;;3.90;3.60;;;;;;;10.16;46.39;99127.41;5044744;28;20208;-77
2021/05/04 02:41:05;;;;;;;4.00;3.70;;;;;;;10.19;46.58;99106.44;5043788;28;20240;-75
2021/05/04 02:43:31;;;;;;;4.13;3.83;;;;;;;10.18;46.40;99117.75;5043861;28;20681;-77
2021/05/04 02:45:57;;;;;;;3.70;3.40;;;;;;;10.20;46.10;99095.06;5044051;28;20237;-76
2021/05/04 02:48:24;;;;;;;4.30;3.90;;;;;;;10.23;45.65;99096.75;5043423;28;20329;-76
2021/05/04 02:50:50;;;;;;;4.10;3.80;;;;;;;10.24;45.58;99078.41;5044230;28;20264;-76
2021/05/04 02:53:16;;;;;;;3.87;3.57;;;;;;;10.25;46.27;99035.78;5043923;28;20230;-75
2021/05/04 02:55:42;;;;;;;3.80;3.50;;;;;;;10.22;46.82;99046.31;5044005;28;20218;-74
2021/05/04 02:58:08;;;;;;;4.30;4.00;;;;;;;10.23;46.66;99034.16;5043777;28;20232;-77
2021/05/04 03:00:34;;;;;;;4.23;3.80;;;;;;;10.26;46.77;99029.63;5044165;28;20207;-75
2021/05/04 03:03:00;;;;;;;4.03;3.73;;;;;;;10.28;45.68;99017.38;5043652;28;20359;-77
2021/05/04 03:05:26;;;;;;;4.60;4.20;;;;;;;10.27;46.21;99018.31;5043363;28;20218;-76
2021/05/04 03:07:52;;;;;;;4.80;4.40;;;;;;;10.30;46.40;99027.78;5043708;28;20239;-74
2021/05/04 03:10:18;;;;;;;4.23;3.87;;;;;;;10.29;46.86;98992.19;5043714;28;20300;-76
2021/05/04 03:12:44;;;;;;;3.77;3.47;;;;;;;10.34;46.84;98992.84;5042972;28;20239;-76
2021/05/04 03:15:11;;;;;;;3.83;3.50;;;;;;;10.32;46.36;98979.03;5043413;28;20241;-76
2021/05/04 03:17:37;;;;;;;4.00;3.70;;;;;;;10.32;46.25;98965.97;5043635;28;20257;-76
2021/05/04 03:20:04;;;;;;;4.10;3.80;;;;;;;10.31;46.42;98967.75;5043251;28;20243;-75
2021/05/04 03:22:31;;;;;;;4.90;4.50;;;;;;;10.31;46.51;98949.50;5043122;28;20257;-74
2021/05/04 03:24:57;;;;;;;3.60;3.30;;;;;;;10.29;46.62;98946.06;5043581;28;20213;-78
2021/05/04 03:27:22;;;;;;;3.73;3.43;;;;;;;10.31;46.49;98940.81;5042833;28;20266;-77
2021/05/04 03:29:48;;;;;;;4.10;3.80;;;;;;;10.31;46.53;98933.00;5043597;28;20606;-76
2021/05/04 03:32:14;;;;;;;4.60;3.97;;;;;;;10.27;45.99;98934.84;5043375;28;20295;-75
2021/05/04 03:34:40;;;;;;;5.47;3.97;;;;;;;10.34;46.42;98925.03;5043387;28;20326;-77
2021/05/04 03:37:06;;;;;;;4.00;3.70;;;;;;;10.34;46.79;98912.84;5043609;28;20232;-76
2021/05/04 03:39:32;;;;;;;4.63;3.30;;;;;;;10.31;46.09;98912.97;5043218;28;20676;-76
2021/05/04 03:41:58;;;;;;;3.93;3.63;;;;;;;10.37;47.18;98892.78;5042797;28;20265;-77
2021/05/04 03:44:24;;;;;;;3.63;3.33;;;;;;;10.38;46.89;98903.13;5042919;28;20216;-75
2021/05/04 03:46:50;;;;;;;3.87;3.57;;;;;;;10.39;46.84;98885.75;5043040;28;20278;-74
2021/05/04 03:49:16;;;;;;;3.80;3.50;;;;;;;10.38;46.56;98892.69;5042654;28;20208;-77
2021/05/04 03:51:42;;;;;;;3.97;3.67;;;;;;;10.38;47.23;98890.09;5043239;28;20206;-77
2021/05/04 03:54:08;;;;;;;3.93;3.63;;;;;;;10.40;46.79;98867.38;5043175;28;20303;-75
2021/05/04 03:56:35;;;;;;;3.17;2.90;;;;;;;10.40;46.48;98856.13;5042799;28;20312;-74
2021/05/04 03:59:01;;;;;;;3.97;3.53;;;;;;;10.42;46.10;98868.16;5043084;28;20257;-76
2021/05/04 04:01:27;;;;;;;3.87;3.57;;;;;;;10.46;46.20;98872.34;5043510;28;20229;-76
2021/05/04 04:03:52;;;;;;;4.33;3.53;;;;;;;10.47;46.30;98871.44;5042555;28;20285;-76
2021/05/04 04:06:19;;;;;;;3.93;3.50;;;;;;;10.50;45.62;98875.66;5042781;28;20268;-76
2021/05/04 04:08:46;;;;;;;4.47;3.67;;;;;;;10.56;45.54;98879.75;5042782;28;20237;-74
2021/05/04 04:11:12;;;;;;;5.07;3.77;;;;;;;10.60;46.24;98876.94;5042964;28;20275;-76
2021/05/04 04:13:39;;;;;;;3.33;3.10;;;;;;;10.60;45.89;98876.94;5042805;28;20210;-76
2021/05/04 04:16:05;;;;;;;4.23;3.00;;;;;;;10.62;46.40;98882.94;5042819;28;20663;-77
2021/05/04 04:18:31;;;;;;;3.30;3.03;;;;;;;10.62;46.45;98864.69;5042638;28;20222;-76
2021/05/04 04:20:57;;;;;;;3.43;3.10;;;;;;;10.62;45.55;98882.09;5042704;28;20224;-74
2021/05/04 04:23:23;;;;;;;3.83;3.53;;;;;;;10.64;46.07;98890.72;5042698;28;20233;-76
2021/05/04 04:25:49;;;;;;;3.73;3.43;;;;;;;10.71;45.54;98882.53;5042890;28;20304;-77
2021/05/04 04:28:15;;;;;;;3.67;3.10;;;;;;;10.76;45.55;98865.81;5042837;28;20242;-77
2021/05/04 04:30:41;;;;;;;4.33;2.73;;;;;;;10.80;46.04;98880.44;5043120;28;20702;-76
2021/05/04 04:33:07;;;;;;;2.77;2.57;;;;;;;10.79;46.64;98857.88;5041831;28;20290;-75
2021/05/04 04:35:33;;;;;;;2.30;2.20;;;;;;;10.80;48.22;98865.66;5042777;28;20204;-76
2021/05/04 04:37:59;;;;;;;2.83;2.63;;;;;;;10.68;47.17;98853.13;5042747;28;20619;-76
2021/05/04 04:40:25;;;;;;;3.10;2.90;;;;;;;10.68;49.45;98833.13;5042951;28;20211;-76
2021/05/04 04:42:51;;;;;;;2.87;2.67;;;;;;;10.59;48.10;98849.19;5044931;28;20263;-77
2021/05/04 04:45:17;;;;;;;2.97;2.77;;;;;;;10.57;48.20;98840.56;5046033;28;20227;-74
2021/05/04 04:47:44;;;;;;;2.73;2.50;;;;;;;10.56;47.61;98846.69;5046219;28;20248;-76
2021/05/04 04:50:10;;;;;;;3.37;2.47;;;;;;;10.57;48.08;98886.69;5046313;28;20243;-76
2021/05/04 04:52:36;;;;;;;4.30;2.73;;;;;;;10.61;47.71;98809.97;5045753;28;20234;-75
2021/05/04 04:55:03;;;;;;;4.50;2.40;;;;;;;10.65;48.06;98835.84;5046539;28;20210;-76
2021/05/04 04:57:29;;;;;;;3.00;2.70;;;;;;;10.63;47.71;98824.63;5045672;28;20262;-76
2021/05/04 04:59:54;;;;;;;2.90;2.70;;;;;;;10.57;49.23;98835.34;5046511;28;20211;-74
2021/05/04 05:02:20;;;;;;;2.47;2.27;;;;;;;10.55;49.77;98829.34;5046358;28;20235;-76
2021/05/04 05:04:49;;;;;;;3.73;2.53;;;;;;;10.46;49.86;98829.75;5044995;28;20313;-74
2021/05/04 05:07:15;;;;;;;2.27;2.10;;;;;;;10.40;50.08;98824.81;5046333;28;20237;-75
2021/05/04 05:09:41;;;;;;;2.80;2.47;;;;;;;10.36;50.35;98846.72;5045789;28;20591;-78
2021/05/04 05:12:08;;;;;;;5.40;2.63;;;;;;;10.37;51.78;98843.22;5046654;28;20208;-75
2021/05/04 05:14:37;;;;;;;3.33;2.60;;;;;;;10.42;52.68;98816.00;5045386;28;20220;-75
2021/05/04 05:17:04;;;;;;;2.60;2.40;;;;;;;10.41;52.22;98816.09;5045320;28;20229;-75
2021/05/04 05:19:30;;;;;;;2.90;2.70;;;;;;;10.45;52.28;98813.25;5045895;28;20259;-75
2021/05/04 05:21:57;;;;;;;3.13;2.87;;;;;;;10.38;51.22;98829.25;5045601;28;20784;-75
2021/05/04 05:24:23;;;;;;;2.43;2.23;;;;;;;10.40;52.27;98812.59;5045400;28;20215;-75
2021/05/04 05:26:49;;;;;;;3.00;2.33;;;;;;;10.28;52.45;98840.03;5045578;28;20235;-76
2021/05/04 05:29:15;;;;;;;6.20;2.53;;;;;;;10.33;53.43;98832.06;5045574;28;20207;-75
2021/05/04 05:31:42;;;;;;;2.70;2.50;;;;;;;10.22;54.48;98842.91;5045803;28;20236;-75
2021/05/04 05:34:08;;;;;;;3.43;3.10;;;;;;;10.17;55.57;98837.06;5045388;28;20213;-76
2021/05/04 05:36:34;;;;;;;3.70;2.77;;;;;;;10.21;56.06;98840.38;5045697;28;20233;-75
2021/05/04 05:39:01;;;;;;;2.47;2.27;;;;;;;10.13;56.76;98849.41;5045344;28;20611;-77
2021/05/04 05:41:27;;;;;;;3.47;3.27;;;;;;;9.98;57.34;98844.81;5045467;28;20208;-77
2021/05/04 05:43:53;;;;;;;2.63;2.43;;;;;;;9.96;58.99;98846.66;5045211;28;20211;-75
2021/05/04 05:46:19;;;;;;;3.07;2.87;;;;;;;9.74;60.45;98847.53;5045438;28;20227;-77
2021/05/04 05:48:45;;;;;;;3.10;2.90;;;;;;;9.77;62.68;98850.94;5044914;28;20243;-77
2021/05/04 05:51:11;;;;;;;4.10;3.17;;;;;;;9.59;64.17;98870.75;5045333;28;20237;-77
2021/05/04 05:53:38;;;;;;;3.87;3.57;;;;;;;9.62;67.31;98862.84;5044024;28;20241;-78
2021/05/04 05:56:05;;;;;;;3.83;3.53;;;;;;;9.55;66.24;98859.59;5044972;28;20270;-77
2021/05/04 05:58:31;;;;;;;3.70;3.40;;;;;;;9.36;66.90;98862.13;5044845;28;20746;-76
2021/05/04 06:00:57;;;;;;;3.50;3.30;;;;;;;9.18;68.89;98857.59;5045101;28;20247;-77
2021/05/04 06:03:23;;;;;;;3.60;3.30;;;;;;;8.87;68.59;98854.44;5044792;28;20233;-76
2021/05/04 06:05:49;;;;;;;4.03;3.80;;;;;;;8.70;69.96;98862.88;5044983;28;20219;-78
2021/05/04 06:08:15;;;;;;;4.00;3.70;;;;;;;8.64;71.64;98857.03;5044877;28;20229;-77
2021/05/04 06:10:41;;;;;;;4.53;4.10;;;;;;;8.47;72.94;98855.91;5045203;28;20248;-76
2021/05/04 06:13:08;;;;;;;4.63;3.70;;;;;;;8.31;71.96;98852.13;5044298;28;20202;-77
2021/05/04 06:15:35;;;;;;;3.80;3.60;;;;;;;8.26;71.53;98854.84;5044942;28;20684;-77
2021/05/04 06:18:00;;;;;;;4.00;3.47;;;;;;;8.32;72.46;98846.00;5044617;28;20719;-76
2021/05/04 06:20:26;;;;;;;3.63;3.30;;;;;;;8.39;73.50;98849.25;5045288;28;20198;-77
2021/05/04 06:22:53;;;;;;;6.60;3.60;;;;;;;8.42;72.24;98837.00;5044241;28;20684;-76
2021/05/04 06:25:19;;;;;;;3.37;3.17;;;;;;;8.44;71.65;98831.75;5044927;28;20213;-76
2021/05/04 06:27:45;;;;;;;5.70;3.40;;;;;;;8.52;70.11;98827.13;5044867;28;20230;-76
2021/05/04 06:30:14;;;;;;;3.20;3.00;;;;;;;8.58;70.90;98823.44;5045224;28;20228;-75
2021/05/04 06:32:40;;;;;;;3.10;2.90;;;;;;;8.72;69.55;98832.44;5044641;28;20209;-73
2021/05/04 06:35:07;;;;;;;2.57;2.37;;;;;;;8.75;68.11;98803.69;5046089;28;20201;-75
2021/05/04 06:37:33;;;;;;;2.80;2.60;;;;;;;8.80;67.89;98794.88;5044589;28;20680;-76
2021/05/04 06:39:59;;;;;;;2.83;2.63;;;;;;;8.97;67.85;98791.63;5044496;28;20218;-74
2021/05/04 06:42:25;;;;;;;2.20;2.10;;;;;;;8.95;68.51;98802.94;5044990;28;20778;-76
2021/05/04 06:44:51;;;;;;;2.70;2.40;;;;;;;9.07;69.96;98791.19;5044140;28;20236;-76
2021/05/04 06:47:17;;;;;;;8.43;2.37;;;;;;;9.05;66.79;98797.38;5045293;28;20753;-78
2021/05/04 06:49:44;;;;;;;2.53;2.30;;;;;;;9.14;67.28;98766.63;5044182;28;20212;-77
2021/05/04 06:52:10;;;;;;;2.43;1.80;;;;;;;9.19;68.67;98784.66;5044312;28;20209;-76
2021/05/04 06:54:36;;;;;;;5.30;2.23;;;;;;;9.21;65.84;98777.63;5044196;28;20206;-78
2021/05/04 06:57:02;;;;;;;2.30;2.10;;;;;;;9.38;66.86;98761.34;5044775;28;21053;-77
2021/05/04 06:59:28;;;;;;;2.27;2.17;;;;;;;9.49;66.70;98758.28;5044402;28;20607;-77
2021/05/04 07:01:54;;;;;;;2.30;2.10;;;;;;;9.46;66.02;98774.91;5043158;28;20234;-77
2021/05/04 07:04:20;;;;;;;2.07;1.97;;;;;;;9.40;66.34;98761.28;5044209;28;20217;-76
2021/05/04 07:06:46;;;;;;;2.17;1.97;;;;;;;9.34;67.63;98759.78;5044635;28;20263;-77
2021/05/04 07:09:12;;;;;;;2.47;2.20;;;;;;;9.45;67.74;98743.69;5045127;28;20232;-77
2021/05/04 07:11:38;;;;;;;2.90;1.90;;;;;;;9.36;66.76;98749.31;5045894;28;20219;-76
2021/05/04 07:14:05;;;;;;;1.90;1.80;;;;;;;9.30;67.10;98756.44;5044452;28;20207;-77
2021/05/04 07:16:31;;;;;;;2.03;1.80;;;;;;;9.27;68.06;98747.91;5044183;28;20198;-76
2021/05/04 07:18:57;;;;;;;2.00;1.80;;;;;;;9.22;67.54;98734.25;5044172;28;20240;-77
2021/05/04 07:21:24;;;;;;;2.97;2.03;;;;;;;9.27;68.49;98747.91;5043717;28;20540;-77
2021/05/04 07:23:50;;;;;;;1.90;1.80;;;;;;;9.30;67.51;98746.03;5043226;28;20214;-77
2021/05/04 07:26:16;;;;;;;2.00;1.80;;;;;;;9.33;66.84;98738.06;5044501;28;20277;-74
2021/05/04 07:28:43;;;;;;;2.10;1.90;;;;;;;9.42;65.43;98731.66;5044580;28;20206;-76
2021/05/04 07:31:09;;;;;;;1.90;1.80;;;;;;;9.64;65.24;98712.53;5044315;28;20245;-76
2021/05/04 07:33:35;;;;;;;2.83;2.63;;;;;;;9.76;65.14;98698.97;5044431;28;20233;-76
2021/05/04 07:36:00;;;;;;;1.80;1.70;;;;;;;9.84;64.03;98714.25;5045757;28;20299;-78
2021/05/04 07:38:28;;;;;;;1.70;1.60;;;;;;;9.89;64.28;98697.50;5044586;28;20257;-76
2021/05/04 07:40:54;;;;;;;1.80;1.30;;;;;;;9.85;63.17;98703.78;5044399;28;20214;-77
2021/05/04 07:43:22;;;;;;;1.87;1.60;;;;;;;9.98;64.00;98695.41;5043897;28;20272;-76
2021/05/04 07:45:48;;;;;;;1.60;1.50;;;;;;;9.88;64.51;98701.03;5044493;28;20680;-76
2021/05/04 07:48:15;;;;;;;1.70;1.60;;;;;;;10.01;66.52;98706.56;5043832;28;20289;-77
2021/05/04 07:50:41;;;;;;;1.50;1.40;;;;;;;10.09;65.27;98707.06;5043651;28;20275;-78
2021/05/04 07:53:07;;;;;;;1.60;1.50;;;;;;;10.10;65.90;98707.88;5043625;28;20658;-78
2021/05/04 07:55:34;;;;;;;1.63;1.50;;;;;;;9.96;65.42;98720.69;5044576;28;20309;-79
2021/05/04 07:58:00;;;;;;;1.50;1.40;;;;;;;9.80;66.16;98734.38;5044723;28;20232;-78
2021/05/04 08:00:26;;;;;;;1.50;1.40;;;;;;;9.90;67.70;98709.63;5044935;28;20741;-77
2021/05/04 08:02:52;;;;;;;1.47;1.37;;;;;;;10.01;67.09;98709.16;5043296;28;20606;-77
2021/05/04 08:05:18;;;;;;;1.73;1.63;;;;;;;10.01;67.64;98708.28;5043826;28;20204;-77
2021/05/04 08:07:43;;;;;;;1.20;1.10;;;;;;;9.88;65.07;98708.84;5043351;28;20780;-76
2021/05/04 08:10:11;;;;;;;2.50;1.10;;;;;;;9.88;67.97;98713.22;5043724;28;20232;-76
2021/05/04 08:12:38;;;;;;;1.90;1.60;;;;;;;9.96;65.42;98715.47;5042320;28;20203;-76
2021/05/04 08:15:06;;;;;;;1.70;1.40;;;;;;;10.05;64.62;98710.72;5042625;28;20238;-75
2021/05/04 08:17:33;;;;;;;1.57;1.47;;;;;;;10.14;64.37;98712.88;5045716;28;20316;-75
2021/05/04 08:20:02;;;;;;;1.40;1.30;;;;;;;10.26;65.10;98703.66;5047929;28;20254;-77
2021/05/04 08:22:28;;;;;;;1.70;1.33;;;;;;;10.15;64.67;98718.97;5047913;28;20326;-77
2021/05/04 08:24:55;;;;;;;1.40;1.30;;;;;;;10.16;65.03;98707.59;5047340;28;20297;-77
2021/05/04 08:27:21;;;;;;;1.23;1.13;;;;;;;10.14;65.08;98705.06;5047026;28;20285;-76
2021/05/04 08:29:48;;;;;;;3.70;1.37;;;;;;;10.16;64.89;98701.56;5047661;28;20751;-77
2021/05/04 08:32:14;;;;;;;1.00;1.00;;;;;;;10.34;65.90;98685.94;5047295;28;20224;-76
2021/05/04 08:34:40;;;;;;;0.93;0.93;;;;;;;10.46;64.65;98660.19;5046582;28;20219;-77
2021/05/04 08:37:06;;;;;;;1.63;1.10;;;;;;;10.56;64.65;98679.72;5047830;28;20221;-76
2021/05/04 08:39:32;;;;;;;1.30;1.20;;;;;;;10.63;64.33;98678.50;5047380;28;20687;-76
2021/05/04 08:41:58;;;;;;;1.07;1.07;;;;;;;10.76;62.49;98647.44;5045690;28;20594;-77
2021/05/04 08:44:25;;;;;;;1.10;1.00;;;;;;;10.62;61.91;98644.66;5046845;28;20681;-76
2021/05/04 08:46:52;;;;;;;1.20;1.13;;;;;;;10.68;63.51;98647.84;5047290;28;20666;-76
2021/05/04 08:49:19;;;;;;;1.00;1.00;;;;;;;10.60;62.69;98641.28;5047316;28;20244;-76
2021/05/04 08:51:47;;;;;;;1.80;1.00;;;;;;;10.60;62.64;98673.44;5046413;28;20207;-76
2021/05/04 08:54:13;;;;;;;8.50;1.27;;;;;;;10.51;63.34;98642.59;5046853;28;20219;-76
2021/05/04 08:56:40;;;;;;;1.30;1.20;;;;;;;10.43;63.62;98649.94;5045784;28;20221;-78
2021/05/04 08:59:06;;;;;;;1.53;1.13;;;;;;;10.30;63.29;98654.84;5046647;28;20214;-75
2021/05/04 09:01:32;;;;;;;1.10;1.07;;;;;;;10.31;63.45;98654.78;5046650;28;20199;-76
2021/05/04 09:04:02;;;;;;;1.57;1.00;;;;;;;10.23;62.89;98646.44;5045513;28;20209;-75
2021/05/04 09:06:30;;;;;;;1.17;1.10;;;;;;;10.27;63.25;98649.78;5046820;28;20670;-76
2021/05/04 09:09:05;;;;;;;1.00;0.83;;;;;;;10.44;63.33;98649.84;5047153;28;20214;-77
2021/05/04 09:11:37;;;;;;;1.83;1.03;;;;;;;10.51;63.08;98647.78;5047714;28;20211;-76
2021/05/04 09:14:10;;;;;;;1.60;1.00;;;;;;;10.63;62.52;98633.31;5047161;28;20211;-76
2021/05/04 09:16:43;;;;;;;1.33;0.90;;;;;;;10.71;61.59;98646.84;5046767;28;20235;-76
2021/05/04 09:19:19;;;;;;;0.83;0.83;;;;;;;10.77;61.36;98656.13;5046416;28;20519;-77
2021/05/04 09:21:45;;;;;;;1.13;1.07;;;;;;;10.80;61.67;98635.97;5046986;28;21097;-75
2021/05/04 09:24:39;;;;;;;1.10;0.80;;;;;;;10.57;60.14;98657.09;5047147;28;20213;-77
2021/05/04 09:27:08;;;;;;;0.87;0.87;;;;;;;10.55;60.45;98643.28;5046745;28;20230;-75
2021/05/04 09:29:36;;;;;;;1.47;1.10;;;;;;;10.49;61.61;98640.03;5046355;28;20764;-74
2021/05/04 09:32:24;;;;;;;1.70;0.70;;;;;;;10.34;61.05;98652.03;5046646;28;20729;-76
2021/05/04 09:34:55;;;;;;;0.90;0.70;;;;;;;10.40;61.76;98642.22;5040636;28;20223;-76
2021/05/04 09:37:24;;;;;;;1.10;1.00;;;;;;;10.42;61.96;98645.63;5046368;28;20568;-77
2021/05/04 09:39:50;;;;;;;2.13;1.00;;;;;;;10.29;62.81;98633.13;5045732;28;20451;-75
2021/05/04 09:42:16;;;;;;;0.80;0.77;;;;;;;10.29;62.50;98650.53;5045946;28;20235;-76
2021/05/04 09:44:45;;;;;;;0.70;0.70;;;;;;;10.27;64.23;98631.53;5046419;28;20318;-75
2021/05/04 09:47:12;;;;;;;0.87;0.87;;;;;;;10.34;64.42;98638.97;5043806;28;21110;-76
2021/05/04 09:49:39;;;;;;;0.70;0.70;;;;;;;10.49;63.42;98624.38;5046057;28;20209;-76
2021/05/04 09:55:10;;;;;;;0.60;0.60;;;;;;;10.75;61.67;98590.97;5045864;28;20215;-76
2021/05/04 09:57:38;;;;;;;0.70;0.70;;;;;;;10.62;62.03;98605.53;5045248;28;21117;-77
2021/05/04 10:00:07;;;;;;;0.70;0.70;;;;;;;10.69;61.91;98606.94;5045832;28;20212;-76
2021/05/04 10:02:34;;;;;;;0.73;0.73;;;;;;;10.71;62.91;98618.97;5045628;28;20424;-76
2021/05/04 10:05:01;;;;;;;0.80;0.80;;;;;;;10.93;62.11;98607.47;5045562;28;20214;-76
2021/05/04 10:07:30;;;;;;;4.67;0.73;;;;;;;10.94;61.41;98603.94;5044830;28;20303;-75
2021/05/04 10:09:58;;;;;;;0.60;0.60;;;;;;;10.93;61.40;98600.47;5046296;28;20198;-75
2021/05/04 10:12:24;;;;;;;0.80;0.80;;;;;;;10.83;61.39;98614.91;5046043;28;20237;-75
2021/05/04 10:14:51;;;;;;;0.93;0.80;;;;;;;10.70;61.26;98613.81;5044856;28;20428;-74
2021/05/04 10:17:18;;;;;;;2.30;0.80;;;;;;;10.59;62.00;98621.34;5044559;28;20234;-75
2021/05/04 10:19:44;;;;;;;1.57;1.00;;;;;;;10.67;62.57;98616.59;5045617;28;20209;-75
2021/05/04 10:22:11;;;;;;;0.80;0.80;;;;;;;10.66;62.44;98607.94;5044607;28;20252;-75
2021/05/04 10:24:40;;;;;;;0.97;0.70;;;;;;;10.81;63.51;98616.75;5045390;28;20206;-76
2021/05/04 10:27:08;;;;;;;1.57;0.90;;;;;;;10.85;62.98;98588.75;5045117;28;20247;-75
2021/05/04 10:29:35;;;;;;;2.00;0.90;;;;;;;10.79;61.77;98594.28;5045483;28;20216;-73
2021/05/04 10:32:01;;;;;;;0.87;0.87;;;;;;;10.88;61.21;98602.50;5045856;28;20208;-75
2021/05/04 10:34:30;;;;;;;0.70;0.70;;;;;;;11.01;60.14;98592.25;5045388;28;20203;-75
2021/05/04 10:36:58;;;;;;;1.57;0.60;;;;;;;11.10;60.95;98594.41;5044818;28;20224;-75
2021/05/04 10:39:34;;;;;;;1.27;1.10;;;;;;;11.19;60.51;98587.03;5043827;28;20261;-76
2021/05/04 10:42:01;;;;;;;0.80;0.80;;;;;;;11.35;60.13;98582.69;5044382;28;20243;-74
2021/05/04 10:44:27;;;;;;;1.33;0.80;;;;;;;11.27;59.65;98592.72;5044218;28;20342;-77
2021/05/04 10:46:54;;;;;;;1.00;0.90;;;;;;;11.28;60.71;98579.56;5045489;28;20270;-76
2021/05/04 10:49:55;;;;;;;0.90;0.70;;;;;;;11.29;60.61;98591.69;5044579;28;20211;-76
2021/05/04 10:52:55;;;;;;;1.47;0.77;;;;;;;11.17;60.01;98578.44;5044694;28;20246;-75
2021/05/04 10:55:23;;;;;;;1.10;0.80;;;;;;;11.09;60.59;98571.81;5044713;28;20214;-75
2021/05/04 10:58:15;;;;;;;1.33;0.87;;;;;;;11.20;60.19;98565.22;5044560;28;20253;-75
2021/05/04 11:00:51;;;;;;;0.70;0.63;;;;;;;11.22;60.77;98559.00;5044284;28;20206;-76
2021/05/04 11:03:50;;;;;;;1.60;0.90;;;;;;;11.27;59.50;98553.53;5043722;28;20714;-75
2021/05/04 11:06:45;;;;;;;1.90;0.70;;;;;;;11.50;59.57;98547.09;5044254;28;20609;-76
2021/05/04 11:09:21;;;;;;;1.47;0.90;;;;;;;11.66;58.86;98547.97;5044370;28;20227;-77
2021/05/04 11:11:49;;;;;;;0.70;0.70;;;;;;;11.73;59.09;98554.56;5044599;28;20591;-74
2021/05/04 11:14:36;;;;;;;0.93;0.83;;;;;;;11.69;58.72;98531.25;5044393;28;20244;-75
2021/05/04 11:17:17;;;;;;;1.30;0.67;;;;;;;11.77;58.78;98539.53;5044272;28;20610;-76
2021/05/04 11:19:44;;;;;;;1.10;0.87;;;;;;;11.78;58.82;98525.53;5043763;28;20211;-75
2021/05/04 11:22:24;;;;;;;2.20;0.83;;;;;;;11.77;58.57;98523.84;5043605;28;20239;-75
2021/05/04 11:24:54;;;;;;;0.83;0.83;;;;;;;11.59;58.59;98524.84;5043798;28;20280;-75
2021/05/04 11:27:29;;;;;;;0.80;0.80;;;;;;;11.52;59.08;98524.34;5043827;28;20262;-76
2021/05/04 11:29:59;;;;;;;0.70;0.70;;;;;;;11.40;60.73;98530.22;5043694;28;20695;-75
2021/05/04 11:32:27;;;;;;;1.00;0.90;;;;;;;11.13;61.47;98525.53;5044062;28;20206;-76
2021/05/04 11:34:55;;;;;;;0.80;0.80;;;;;;;11.12;62.13;98522.06;5044219;28;20213;-75
2021/05/04 11:37:44;;;;;;;0.93;0.93;;;;;;;11.22;64.80;98547.69;5043630;28;20793;-76
2021/05/04 11:40:15;;;;;;;1.10;1.10;;;;;;;11.01;66.59;98534.00;5044252;28;20305;-75
2021/05/04 11:42:43;;;;;;;1.97;1.00;;;;;;;10.97;66.25;98535.06;5042860;28;20656;-77